Jack Brusco — WDC3066 — position and weather

sailwx.info

Track history (hours):
 
Tides and Currents Weather Stations Pressure Air Temp Water Temp Dewpoint Dewpoint Depression Visibility Wind Speed Wind Dir Waves Ship Positions

Jack Brusco

Owner: Brusco Tug & Barge, Inc., Longview, WA. More information available from US FCC via Universal Licensing System and Coast Guard Vessel Documentation Center.

Last reported at 2015-Mar-29 08:20 UTC. Time now 2015-Mar-30 16:17 UTC.
Position N 49°28' W 123°28'.

Length 36 m; draft 5.2 m.

Type: Tug. MMSI: 3699086.

Date/timePositionNaut miles runAvg speedWind from/ knotsBaromVisibWave heightAir tempDewpointWater temp
2015-Mar-29 08:20N 49°28' W 123°28'4 4.5
2015-Mar-29 07:32N 49°25' W 123°26'5 4.3
2015-Mar-29 06:20N 49°20' W 123°27'4 4.5
2015-Mar-29 05:33N 49°16' W 123°28'5 4.8
2015-Mar-29 04:33N 49°12' W 123°27'5 5.2
2015-Mar-29 03:33N 49°07' W 123°23'5 5.0
2015-Mar-29 02:33N 49°03' W 123°18'5 5.0
2015-Mar-29 01:33N 48°60' W 123°13'5 4.9
2015-Mar-29 00:33N 48°56' W 123°07'5 4.7
2015-Mar-28 23:33N 48°52' W 123°03'5 4.8
2015-Mar-28 22:33N 48°48' W 123°00'4 4.0
2015-Mar-28 21:32N 48°45' W 123°05'5 5.3
2015-Mar-28 20:33N 48°42' W 123°11'1 0.6
2015-Mar-28 19:31N 48°42' W 123°12'2 2.4
2015-Mar-28 18:31N 48°40' W 123°14'6 6.2
2015-Mar-28 17:33N 48°34' W 123°12'7 6.8
2015-Mar-28 16:33N 48°27' W 123°10'6 5.8
2015-Mar-28 15:33N 48°22' W 123°14'6 5.6
2015-Mar-28 14:33N 48°19' W 123°20'6 5.7
2015-Mar-28 13:33N 48°15' W 123°27'7 6.9
2015-Mar-28 12:33N 48°13' W 123°37'7 6.9
2015-Mar-28 11:32N 48°13' W 123°47'16 6.8
2015-Mar-28 09:13N 48°17' W 124°10'5 7.1
2015-Mar-28 08:32N 48°19' W 124°17'7 7.1
2015-Mar-28 07:33N 48°22' W 124°27'7 7.3
2015-Mar-28 06:34N 48°25' W 124°36'7 7.2
2015-Mar-28 05:33N 48°25' W 124°47'9 8.1
2015-Mar-28 04:30N 48°18' W 124°55'76 7.4
2015-Mar-27 18:10N 47°03' W 124°33'4 7.2
2015-Mar-27 17:33N 46°59' W 124°31'7 6.8
2015-Mar-27 16:33N 46°54' W 124°25'6 6.2
2015-Mar-27 15:33N 46°47' W 124°25'8 7.6
2015-Mar-27 14:33N 46°40' W 124°26'8 7.7
2015-Mar-27 13:33N 46°32' W 124°23'8 8.2
2015-Mar-27 12:33N 46°24' W 124°21'8 8.2
2015-Mar-27 11:34N 46°16' W 124°20'7 7.4
2015-Mar-27 10:33N 46°09' W 124°20'7 7.3
2015-Mar-27 09:33N 46°01' W 124°20'7 7.0
2015-Mar-27 08:33N 45°55' W 124°18'7 7.0
2015-Mar-27 07:33N 45°48' W 124°15'7 7.3
2015-Mar-27 06:33N 45°40' W 124°15'7 7.3
2015-Mar-27 05:34N 45°33' W 124°15'7 6.9
2015-Mar-27 04:33N 45°27' W 124°18'7 6.9
2015-Mar-27 03:33N 45°20' W 124°21'9 6.8
2015-Mar-27 02:18N 45°12' W 124°24'  
2015-Mar-22 10:12N 48°23' W 124°50'5 6.8
2015-Mar-22 09:32N 48°26' W 124°45'7 7.4
2015-Mar-22 08:33N 48°24' W 124°35'8 7.8
2015-Mar-22 07:31N 48°20' W 124°24'26 8.6
2015-Mar-22 04:27N 48°12' W 123°46'8 8.8
2015-Mar-22 03:33N 48°12' W 123°34'8 8.2
2015-Mar-22 02:33N 48°16' W 123°23'8 8.5
2015-Mar-22 01:33N 48°22' W 123°14'8 8.5
2015-Mar-22 00:33N 48°30' W 123°13'7 7.5
2015-Mar-21 23:33N 48°38' W 123°14'6 5.8
2015-Mar-21 22:33N 48°43' W 123°11'7 7.1
2015-Mar-21 21:33N 48°47' W 123°02'7 7.1
2015-Mar-21 20:33N 48°53' W 123°08'9 8.9
2015-Mar-21 19:32N 48°59' W 123°18'5 5.1
2015-Mar-21 18:33N 49°03' W 123°21'1 1.5
2015-Mar-21 17:33N 49°04' W 123°19'7 6.5
2015-Mar-21 16:33N 48°59' W 123°12'7 6.6
2015-Mar-21 15:33N 48°54' W 123°05'9 8.4
2015-Mar-21 14:32N 48°45' W 123°04'9 9.6
2015-Mar-21 13:33N 48°38' W 123°14'1212.5
2015-Mar-21 12:33N 48°26' W 123°09'1414.1
2015-Mar-21 11:33N 48°16' W 123°24'1714.1
2015-Mar-21 10:19N 48°13' W 123°50'1314.2
2015-Mar-21 09:22N 48°16' W 124°09'1214.3
2015-Mar-21 08:33N 48°21' W 124°25'1413.5
2015-Mar-21 07:32N 48°26' W 124°45'13311.0
2015-Mar-20 19:28N 46°16' W 124°02'8 8.9
2015-Mar-20 18:33N 46°12' W 123°52'1 1.0
2015-Mar-20 17:28N 46°12' W 123°50'0 0.0
2015-Mar-20 16:32N 46°12' W 123°50'1 1.5
2015-Mar-20 15:34N 46°12' W 123°48'  
Track history (hours):
 
Tides and Currents Weather Stations Pressure Air Temp Water Temp Dewpoint Dewpoint Depression Visibility Wind Speed Wind Dir Waves Ship Positions

Jack Brusco

Owner: Brusco Tug & Barge, Inc., Longview, WA. More information available from US FCC via Universal Licensing System and Coast Guard Vessel Documentation Center.

Last reported at 2015-Mar-29 08:20 UTC. Time now 2015-Mar-30 16:17 UTC.
Position N 49°28' W 123°28'.

Length 36 m; draft 5.2 m.

Type: Tug. MMSI: 3699086.

Date/timePositionNaut miles runAvg speedWind from/ knotsBaromVisibWave heightAir tempDewpointWater temp
2015-Mar-29 08:20N 49°28' W 123°28'4 4.5
2015-Mar-29 07:32N 49°25' W 123°26'5 4.3
2015-Mar-29 06:20N 49°20' W 123°27'4 4.5
2015-Mar-29 05:33N 49°16' W 123°28'5 4.8
2015-Mar-29 04:33N 49°12' W 123°27'5 5.2
2015-Mar-29 03:33N 49°07' W 123°23'5 5.0
2015-Mar-29 02:33N 49°03' W 123°18'5 5.0
2015-Mar-29 01:33N 48°60' W 123°13'5 4.9
2015-Mar-29 00:33N 48°56' W 123°07'5 4.7
2015-Mar-28 23:33N 48°52' W 123°03'5 4.8
2015-Mar-28 22:33N 48°48' W 123°00'4 4.0
2015-Mar-28 21:32N 48°45' W 123°05'5 5.3
2015-Mar-28 20:33N 48°42' W 123°11'1 0.6
2015-Mar-28 19:31N 48°42' W 123°12'2 2.4
2015-Mar-28 18:31N 48°40' W 123°14'6 6.2
2015-Mar-28 17:33N 48°34' W 123°12'7 6.8
2015-Mar-28 16:33N 48°27' W 123°10'6 5.8
2015-Mar-28 15:33N 48°22' W 123°14'6 5.6
2015-Mar-28 14:33N 48°19' W 123°20'6 5.7
2015-Mar-28 13:33N 48°15' W 123°27'7 6.9
2015-Mar-28 12:33N 48°13' W 123°37'7 6.9
2015-Mar-28 11:32N 48°13' W 123°47'16 6.8
2015-Mar-28 09:13N 48°17' W 124°10'5 7.1
2015-Mar-28 08:32N 48°19' W 124°17'7 7.1
2015-Mar-28 07:33N 48°22' W 124°27'7 7.3
2015-Mar-28 06:34N 48°25' W 124°36'7 7.2
2015-Mar-28 05:33N 48°25' W 124°47'9 8.1
2015-Mar-28 04:30N 48°18' W 124°55'76 7.4
2015-Mar-27 18:10N 47°03' W 124°33'4 7.2
2015-Mar-27 17:33N 46°59' W 124°31'7 6.8
2015-Mar-27 16:33N 46°54' W 124°25'6 6.2
2015-Mar-27 15:33N 46°47' W 124°25'8 7.6
2015-Mar-27 14:33N 46°40' W 124°26'8 7.7
2015-Mar-27 13:33N 46°32' W 124°23'8 8.2
2015-Mar-27 12:33N 46°24' W 124°21'8 8.2
2015-Mar-27 11:34N 46°16' W 124°20'7 7.4
2015-Mar-27 10:33N 46°09' W 124°20'7 7.3
2015-Mar-27 09:33N 46°01' W 124°20'7 7.0
2015-Mar-27 08:33N 45°55' W 124°18'7 7.0
2015-Mar-27 07:33N 45°48' W 124°15'7 7.3
2015-Mar-27 06:33N 45°40' W 124°15'7 7.3
2015-Mar-27 05:34N 45°33' W 124°15'7 6.9
2015-Mar-27 04:33N 45°27' W 124°18'7 6.9
2015-Mar-27 03:33N 45°20' W 124°21'9 6.8
2015-Mar-27 02:18N 45°12' W 124°24'  
2015-Mar-22 10:12N 48°23' W 124°50'5 6.8
2015-Mar-22 09:32N 48°26' W 124°45'7 7.4
2015-Mar-22 08:33N 48°24' W 124°35'8 7.8
2015-Mar-22 07:31N 48°20' W 124°24'26 8.6
2015-Mar-22 04:27N 48°12' W 123°46'8 8.8
2015-Mar-22 03:33N 48°12' W 123°34'8 8.2
2015-Mar-22 02:33N 48°16' W 123°23'8 8.5
2015-Mar-22 01:33N 48°22' W 123°14'8 8.5
2015-Mar-22 00:33N 48°30' W 123°13'7 7.5
2015-Mar-21 23:33N 48°38' W 123°14'6 5.8
2015-Mar-21 22:33N 48°43' W 123°11'7 7.1
2015-Mar-21 21:33N 48°47' W 123°02'7 7.1
2015-Mar-21 20:33N 48°53' W 123°08'9 8.9
2015-Mar-21 19:32N 48°59' W 123°18'5 5.1
2015-Mar-21 18:33N 49°03' W 123°21'1 1.5
2015-Mar-21 17:33N 49°04' W 123°19'7 6.5
2015-Mar-21 16:33N 48°59' W 123°12'7 6.6
2015-Mar-21 15:33N 48°54' W 123°05'9 8.4
2015-Mar-21 14:32N 48°45' W 123°04'9 9.6
2015-Mar-21 13:33N 48°38' W 123°14'1212.5
2015-Mar-21 12:33N 48°26' W 123°09'1414.1
2015-Mar-21 11:33N 48°16' W 123°24'1714.1
2015-Mar-21 10:19N 48°13' W 123°50'1314.2
2015-Mar-21 09:22N 48°16' W 124°09'1214.3
2015-Mar-21 08:33N 48°21' W 124°25'1413.5
2015-Mar-21 07:32N 48°26' W 124°45'13311.0
2015-Mar-20 19:28N 46°16' W 124°02'8 8.9
2015-Mar-20 18:33N 46°12' W 123°52'1 1.0
2015-Mar-20 17:28N 46°12' W 123°50'0 0.0
2015-Mar-20 16:32N 46°12' W 123°50'1 1.5
2015-Mar-20 15:34N 46°12' W 123°48'  

Dump ship's entire track history